Time;durP1;ratioP1;P1;durP2;ratioP2;P2;SDS_P1;SDS_P2;PMS_P1;PMS_P2;Temp;Humidity;BMP_temperature;BMP_pressure;BME280_temperature;BME280_humidity;BME280_pressure;Samples;Min_cycle;Max_cycle;Signal;HPM_P1;HPM_P2
2022/02/02 00:02:20;;;;;;;3.17;2.15;;;-9.20;99.90;;;;;;5057892;28;20032;-72
2022/02/02 00:04:50;;;;;;;3.80;2.25;;;-9.20;99.90;;;;;;5058186;28;20055;-71
2022/02/02 00:08:21;;;;;;;4.20;2.70;;;-9.20;99.90;;;;;;5057830;28;20108;-71
2022/02/02 00:10:35;;;;;;;2.75;2.03;;;-9.20;99.90;;;;;;5044435;28;20040;-71
2022/02/02 00:13:04;;;;;;;2.92;2.05;;;-9.20;99.90;;;;;;5057845;28;20025;-71
2022/02/02 00:20:35;;;;;;;4.43;2.50;;;-9.20;99.90;;;;;;5058127;28;20017;-72
2022/02/02 00:23:03;;;;;;;1.55;1.45;;;-9.20;99.90;;;;;;5053780;28;20020;-71
2022/02/02 00:25:36;;;;;;;1.70;1.42;;;-9.20;99.90;;;;;;5054675;28;20112;-71
2022/02/02 00:28:06;;;;;;;3.95;2.60;;;-9.20;99.90;;;;;;5054776;28;20476;-71
2022/02/02 00:30:36;;;;;;;2.70;2.33;;;-9.20;99.90;;;;;;5054752;28;20594;-71
2022/02/02 00:36:11;;;;;;;3.72;3.03;;;-9.20;99.90;;;;;;4992737;28;20501;-71
2022/02/02 00:38:36;;;;;;;3.65;2.20;;;-9.20;99.90;;;;;;4992703;28;20042;-71
2022/02/02 00:41:02;;;;;;;7.28;2.80;;;-9.20;99.90;;;;;;5023205;28;20043;-71
2022/02/02 00:43:28;;;;;;;4.03;2.28;;;-9.20;99.90;;;;;;5054337;28;20029;-71
2022/02/02 00:45:54;;;;;;;3.97;2.85;;;-9.20;99.90;;;;;;5054298;28;20029;-71
2022/02/02 00:48:25;;;;;;;4.00;2.35;;;-9.20;99.90;;;;;;5052940;28;20021;-71
2022/02/02 00:50:51;;;;;;;7.30;2.78;;;-9.10;99.90;;;;;;5054239;28;20037;-71
2022/02/02 00:53:17;;;;;;;6.20;2.75;;;-9.10;99.90;;;;;;5054100;28;20353;-71
2022/02/02 00:55:43;;;;;;;5.57;2.70;;;-9.00;99.90;;;;;;5054398;28;20137;-71
2022/02/02 00:58:10;;;;;;;3.88;2.55;;;-9.00;99.90;;;;;;5053956;28;20103;-71
2022/02/02 01:00:36;;;;;;;3.70;2.53;;;-9.00;99.90;;;;;;5054055;28;20484;-71
2022/02/02 01:03:02;;;;;;;5.63;2.40;;;-9.00;99.90;;;;;;5053934;28;20033;-71
2022/02/02 01:05:28;;;;;;;5.95;2.60;;;-9.00;99.90;;;;;;5054040;28;20037;-71
2022/02/02 01:10:32;;;;;;;3.25;2.38;;;-9.00;99.90;;;;;;5054018;28;20029;-71
2022/02/02 01:20:59;;;;;;;5.13;2.85;;;-9.00;99.90;;;;;;5053728;28;20013;-72
2022/02/02 01:28:54;;;;;;;5.22;2.92;;;-8.80;99.90;;;;;;5053600;28;20024;-71
2022/02/02 01:31:20;;;;;;;6.53;2.72;;;-8.80;99.90;;;;;;5053379;28;20032;-70
2022/02/02 01:33:47;;;;;;;4.57;2.47;;;-8.80;99.90;;;;;;5053147;28;20025;-70
2022/02/02 01:36:13;;;;;;;4.85;2.67;;;-8.80;99.90;;;;;;5053224;28;20392;-70
2022/02/02 01:38:39;;;;;;;6.28;2.85;;;-8.80;99.90;;;;;;5053297;28;20053;-70
2022/02/02 01:41:10;;;;;;;3.15;2.45;;;-8.80;99.90;;;;;;5053624;28;20025;-70
2022/02/02 01:43:44;;;;;;;3.60;2.50;;;-8.90;99.90;;;;;;5053432;28;20029;-70
2022/02/02 01:46:14;;;;;;;3.05;2.08;;;-8.80;99.90;;;;;;5053163;28;20029;-70
2022/02/02 01:56:09;;;;;;;4.78;2.60;;;-8.90;99.90;;;;;;5052921;28;20036;-70
2022/02/02 02:01:08;;;;;;;8.05;2.80;;;-8.90;99.90;;;;;;5053009;28;20017;-71
2022/02/02 02:03:35;;;;;;;5.97;2.95;;;-8.90;99.90;;;;;;5052899;28;20060;-71
2022/02/02 02:06:01;;;;;;;6.22;2.88;;;-8.90;99.90;;;;;;5053047;28;20036;-71
2022/02/02 02:08:27;;;;;;;6.90;3.20;;;-8.80;99.90;;;;;;5052837;28;20032;-71
2022/02/02 02:10:53;;;;;;;3.97;2.85;;;-8.80;99.90;;;;;;5052762;28;20025;-71
2022/02/02 02:15:47;;;;;;;4.45;2.95;;;-8.80;99.90;;;;;;5052691;28;20116;-71
2022/02/02 02:18:13;;;;;;;5.22;2.95;;;-8.80;99.90;;;;;;5052983;28;20171;-71
2022/02/02 02:20:40;;;;;;;5.20;3.05;;;-8.70;99.90;;;;;;5052659;28;20673;-72
2022/02/02 02:23:06;;;;;;;4.03;2.47;;;-8.70;99.90;;;;;;5052446;28;20017;-71
2022/02/02 02:57:23;;;;;;;11.27;3.22;;;-8.70;99.90;;;;;;5052041;28;20048;-71
2022/02/02 04:09:22;;;;;;;4.20;2.72;;;-8.40;99.90;;;;;;5035501;28;20032;-71
2022/02/02 04:12:03;;;;;;;5.38;2.72;;;-8.40;99.90;;;;;;5035136;28;20018;-71
2022/02/02 04:17:44;;;;;;;4.97;3.33;;;-8.30;99.90;;;;;;5035539;28;20091;-71
2022/02/02 04:55:41;;;;;;;4.55;2.85;;;-8.40;99.90;;;;;;5034352;28;20358;-72
2022/02/02 05:09:00;;;;;;;8.55;3.38;;;-8.30;99.90;;;;;;5033132;28;20357;-70
2022/02/02 05:44:34;;;;;;;4.85;2.88;;;-7.10;99.90;;;;;;5033088;28;20120;-75
2022/02/02 05:52:12;;;;;;;5.55;3.15;;;-7.70;99.90;;;;;;5033316;28;20443;-76
2022/02/02 05:54:38;;;;;;;5.82;2.97;;;-7.70;99.90;;;;;;5032829;28;20026;-80
2022/02/02 05:57:07;;;;;;;4.68;2.83;;;-7.80;99.90;;;;;;5028434;28;20021;-75
2022/02/02 05:59:34;;;;;;;4.07;2.80;;;-7.80;99.90;;;;;;5030532;28;20528;-75
2022/02/02 06:02:01;;;;;;;5.90;2.90;;;-7.90;99.90;;;;;;5027804;28;20746;-74
2022/02/02 06:04:29;;;;;;;4.20;2.80;;;-7.90;99.90;;;;;;5031578;28;20504;-73
2022/02/02 06:07:01;;;;;;;5.57;2.92;;;-7.90;99.90;;;;;;5028079;28;20387;-73
2022/02/02 06:09:33;;;;;;;7.65;3.38;;;-7.90;99.90;;;;;;5032284;28;20048;-74
2022/02/02 06:11:59;;;;;;;5.28;2.67;;;-7.90;99.90;;;;;;5030735;28;20026;-74
2022/02/02 06:14:27;;;;;;;4.93;2.92;;;-7.80;99.90;;;;;;5032145;28;20013;-74
2022/02/02 06:17:00;;;;;;;6.68;3.38;;;-7.80;99.90;;;;;;5011175;28;20053;-74
2022/02/02 06:19:26;;;;;;;6.28;2.90;;;-7.80;99.90;;;;;;5021239;28;20795;-74
2022/02/02 06:22:22;;;;;;;4.60;3.25;;;-7.80;99.90;;;;;;5032206;28;20387;-74
2022/02/02 06:24:56;;;;;;;4.75;2.65;;;-7.90;99.90;;;;;;5030907;28;20045;-73
2022/02/02 06:27:24;;;;;;;4.00;2.80;;;-7.90;99.90;;;;;;5032501;28;20021;-73
2022/02/02 06:30:19;;;;;;;6.00;3.40;;;-7.70;99.90;;;;;;5032291;28;20021;-76
2022/02/02 06:32:54;;;;;;;6.55;3.80;;;-7.60;99.90;;;;;;5019814;28;20037;-73
2022/02/02 06:35:21;;;;;;;4.65;2.55;;;-7.70;99.90;;;;;;5032614;28;20057;-73
2022/02/02 06:37:49;;;;;;;4.25;2.35;;;-7.70;99.90;;;;;;5032332;28;20041;-73
2022/02/02 06:40:16;;;;;;;3.78;2.33;;;-7.80;99.90;;;;;;5032493;28;20033;-74
2022/02/02 06:42:43;;;;;;;5.38;3.08;;;-7.80;99.90;;;;;;5031012;28;20087;-72
2022/02/02 06:45:10;;;;;;;6.72;3.90;;;-7.50;99.90;;;;;;5032029;28;20130;-72
2022/02/02 06:47:38;;;;;;;8.13;2.85;;;-7.50;99.90;;;;;;5032075;28;20029;-72
2022/02/02 06:50:15;;;;;;;4.60;2.92;;;-7.50;99.90;;;;;;5032307;28;20033;-72
2022/02/02 06:52:48;;;;;;;4.50;2.40;;;-7.60;99.90;;;;;;5032208;28;20029;-72
2022/02/02 06:55:32;;;;;;;4.38;3.13;;;-7.70;99.90;;;;;;5032111;28;20025;-72
2022/02/02 06:58:26;;;;;;;4.25;2.85;;;-7.20;99.90;;;;;;5032160;28;20025;-79
2022/02/02 07:01:13;;;;;;;5.28;3.47;;;-7.20;99.90;;;;;;5031968;28;20038;-78
2022/02/02 07:04:11;;;;;;;3.63;2.45;;;-7.40;99.90;;;;;;5031859;28;20101;-76
2022/02/02 07:12:06;;;;;;;6.38;2.88;;;-7.70;99.90;;;;;;5032027;28;20037;-77
2022/02/02 07:28:04;;;;;;;3.80;2.83;;;-7.80;99.90;;;;;;5020382;28;20026;-78
2022/02/02 07:30:47;;;;;;;6.00;2.80;;;-7.70;99.90;;;;;;5030677;28;20068;-74
2022/02/02 07:33:24;;;;;;;6.78;3.20;;;-7.70;99.90;;;;;;5035586;28;20110;-78
2022/02/02 07:36:03;;;;;;;4.25;2.85;;;-7.70;99.90;;;;;;5035249;28;20021;-75
2022/02/02 07:38:43;;;;;;;5.05;2.97;;;-7.60;99.90;;;;;;5034922;28;20054;-73
2022/02/02 07:41:13;;;;;;;5.70;3.35;;;-7.60;99.90;;;;;;5033139;28;20029;-74
2022/02/02 07:43:44;;;;;;;4.40;2.70;;;-7.70;99.90;;;;;;5035215;28;20030;-76
2022/02/02 07:46:13;;;;;;;4.40;3.05;;;-7.70;99.90;;;;;;5034976;28;20036;-70
2022/02/02 07:48:42;;;;;;;5.45;3.13;;;-7.70;99.90;;;;;;5050223;28;20017;-70
2022/02/02 07:51:10;;;;;;;5.65;3.42;;;-7.70;99.90;;;;;;5053902;28;20071;-71
2022/02/02 07:53:47;;;;;;;5.55;3.25;;;-7.60;99.90;;;;;;5053288;28;20017;-72
2022/02/02 07:56:17;;;;;;;6.55;3.47;;;-7.60;99.90;;;;;;5034706;28;20112;-72
2022/02/02 07:58:59;;;;;;;4.20;2.63;;;-7.60;99.90;;;;;;5034544;28;20013;-72
2022/02/02 08:01:24;;;;;;;5.88;3.03;;;-7.60;99.90;;;;;;5015059;28;20034;-72
2022/02/02 08:03:55;;;;;;;4.47;2.65;;;-7.70;99.90;;;;;;5032838;28;20033;-72
2022/02/02 08:06:25;;;;;;;5.70;2.95;;;-7.70;99.90;;;;;;5035021;28;20033;-72
2022/02/02 08:08:51;;;;;;;5.45;3.05;;;-7.70;99.90;;;;;;5034872;28;20094;-72
2022/02/02 08:11:26;;;;;;;7.00;3.28;;;-7.60;99.90;;;;;;5034581;28;20051;-72
2022/02/02 08:13:56;;;;;;;6.05;3.50;;;-7.60;99.90;;;;;;5034662;28;20400;-73
2022/02/02 08:16:23;;;;;;;5.50;2.67;;;-7.60;99.90;;;;;;5034928;28;20025;-72
2022/02/02 08:18:51;;;;;;;4.88;2.55;;;-7.60;99.90;;;;;;5034683;28;20064;-71
2022/02/02 08:21:17;;;;;;;5.68;3.20;;;-7.60;99.90;;;;;;5034501;28;20025;-71
2022/02/02 08:23:44;;;;;;;5.22;3.35;;;-7.60;99.90;;;;;;5034189;28;20041;-70
2022/02/02 08:26:14;;;;;;;6.55;3.40;;;-7.60;99.90;;;;;;5032912;28;20037;-73
2022/02/02 08:28:44;;;;;;;5.75;2.88;;;-7.50;99.90;;;;;;5033579;28;20025;-71
2022/02/02 08:31:11;;;;;;;9.02;3.10;;;-7.60;99.90;;;;;;5034740;28;20119;-71
2022/02/02 08:33:44;;;;;;;5.60;2.90;;;-7.50;99.90;;;;;;5035101;28;20029;-71
2022/02/02 08:36:13;;;;;;;4.78;2.92;;;-6.80;99.90;;;;;;5034946;28;20037;-72
2022/02/02 08:41:22;;;;;;;5.63;3.40;;;-6.80;99.90;;;;;;5034512;28;20044;-72
2022/02/02 08:44:11;;;;;;;7.18;3.80;;;-7.00;99.90;;;;;;5033361;28;20029;-73
2022/02/02 08:46:45;;;;;;;4.65;2.72;;;-7.00;99.90;;;;;;5034660;28;20504;-73
2022/02/02 08:49:13;;;;;;;5.75;3.15;;;-7.10;99.90;;;;;;5034240;28;20030;-72
2022/02/02 08:51:43;;;;;;;4.68;2.63;;;-7.20;99.90;;;;;;5034546;28;20083;-72
2022/02/02 08:57:10;;;;;;;3.78;3.00;;;-7.30;99.90;;;;;;5034387;28;20384;-73
2022/02/02 09:00:11;;;;;;;6.32;3.17;;;-7.30;99.90;;;;;;5034103;28;20087;-73
2022/02/02 09:02:21;;;;;;;4.25;2.90;;;-7.30;99.90;;;;;;5028274;28;20063;-73
2022/02/02 09:07:32;;;;;;;5.82;2.90;;;-7.20;99.90;;;;;;5034212;28;20114;-73
2022/02/02 09:21:31;;;;;;;4.75;3.35;;;-7.10;99.90;;;;;;5033997;28;20029;-73
2022/02/02 09:23:30;;;;;;;4.88;3.05;;;-7.20;99.90;;;;;;5033605;28;20055;-73
2022/02/02 09:31:41;;;;;;;6.50;2.75;;;-7.30;99.90;;;;;;5033783;28;20041;-73
2022/02/02 09:34:10;;;;;;;6.75;2.78;;;-7.20;99.90;;;;;;5033337;28;20455;-73
2022/02/02 09:36:40;;;;;;;5.55;2.78;;;-7.30;99.90;;;;;;5033422;28;20121;-72
2022/02/02 09:39:10;;;;;;;6.33;3.50;;;-7.30;99.90;;;;;;5032765;28;20045;-73
2022/02/02 09:44:05;;;;;;;5.28;2.95;;;-7.30;99.90;;;;;;5033429;28;20032;-73
2022/02/02 09:46:39;;;;;;;6.35;3.33;;;-7.30;99.90;;;;;;5033142;28;20029;-73
2022/02/02 09:49:11;;;;;;;5.20;2.92;;;-7.30;99.90;;;;;;5033046;28;20492;-73
2022/02/02 09:51:43;;;;;;;3.33;2.53;;;-7.30;99.90;;;;;;5033699;28;20037;-73
2022/02/02 09:54:15;;;;;;;6.60;3.30;;;-7.30;99.90;;;;;;5032925;28;20057;-73
2022/02/02 09:57:32;;;;;;;4.60;2.80;;;-7.40;99.90;;;;;;5033496;28;20029;-72
2022/02/02 10:15:22;;;;;;;4.35;2.95;;;-7.00;99.90;;;;;;5032848;28;20025;-70
2022/02/02 10:18:04;;;;;;;3.30;2.47;;;-7.00;99.90;;;;;;5032959;28;20045;-71
2022/02/02 10:20:30;;;;;;;4.82;2.80;;;-6.80;99.90;;;;;;5032489;28;20504;-70
2022/02/02 10:22:58;;;;;;;5.28;2.83;;;-6.90;99.90;;;;;;5032514;28;20029;-71
2022/02/02 10:25:31;;;;;;;7.60;3.10;;;-6.80;99.90;;;;;;5032189;28;20030;-71
2022/02/02 10:28:09;;;;;;;4.82;2.90;;;-6.80;99.90;;;;;;5032303;28;20029;-70
2022/02/02 10:30:35;;;;;;;6.18;3.67;;;-6.90;99.90;;;;;;5031572;28;20037;-71
2022/02/02 10:33:04;;;;;;;6.47;3.25;;;-7.00;99.90;;;;;;5031751;28;20393;-70
2022/02/02 10:35:38;;;;;;;6.20;2.85;;;-6.50;99.90;;;;;;5031775;28;20013;-76
2022/02/02 10:38:09;;;;;;;4.18;2.63;;;-6.50;99.90;;;;;;5029417;28;20515;-72
2022/02/02 10:41:28;;;;;;;5.35;3.20;;;-6.70;99.90;;;;;;5031514;28;20026;-71
2022/02/02 10:43:38;;;;;;;4.97;3.20;;;-6.90;99.90;;;;;;5023564;28;20053;-71
2022/02/02 10:49:01;;;;;;;4.90;2.72;;;-7.20;99.90;;;;;;5032405;28;20052;-76
2022/02/02 10:54:08;;;;;;;6.85;2.67;;;-7.40;99.90;;;;;;5031987;28;20117;-77
2022/02/02 10:56:43;;;;;;;4.07;2.53;;;-7.30;99.90;;;;;;5030245;28;20029;-77
2022/02/02 10:59:37;;;;;;;4.10;2.70;;;-7.30;99.90;;;;;;5029273;28;20031;-77
2022/02/02 11:07:20;;;;;;;4.60;2.35;;;-7.30;99.90;;;;;;5012018;28;20157;-73
2022/02/02 11:09:47;;;;;;;7.32;3.30;;;-7.30;99.90;;;;;;5012141;28;20022;-74
2022/02/02 11:12:14;;;;;;;6.13;3.05;;;-7.30;99.90;;;;;;5012250;28;20384;-73
2022/02/02 11:14:49;;;;;;;4.53;3.08;;;-7.30;99.90;;;;;;5012543;28;20026;-73
2022/02/02 11:17:33;;;;;;;7.38;3.15;;;-7.20;99.90;;;;;;5011165;28;20068;-73
2022/02/02 11:20:05;;;;;;;5.53;3.33;;;-7.20;99.90;;;;;;5012293;28;20036;-73
2022/02/02 11:22:32;;;;;;;6.30;3.35;;;-7.10;99.90;;;;;;5014581;28;20041;-73
2022/02/02 11:25:19;;;;;;;4.60;2.90;;;-7.20;99.90;;;;;;5031885;28;20033;-73
2022/02/02 11:27:48;;;;;;;4.72;2.67;;;-7.20;99.90;;;;;;5000987;28;20025;-73
2022/02/02 11:30:23;;;;;;;2.72;2.17;;;-7.10;99.90;;;;;;5031821;28;20428;-73
2022/02/02 11:32:57;;;;;;;5.60;3.15;;;-7.20;99.90;;;;;;5031881;28;20179;-73
2022/02/02 11:35:46;;;;;;;3.42;2.33;;;-7.20;99.90;;;;;;5031404;28;20532;-73
2022/02/02 11:38:25;;;;;;;5.38;3.10;;;-7.20;99.90;;;;;;5031327;28;20413;-73
2022/02/02 11:44:39;;;;;;;4.88;2.72;;;-7.10;99.90;;;;;;5031977;28;20112;-73
2022/02/02 11:46:38;;;;;;;8.75;3.42;;;-7.10;99.90;;;;;;5024158;28;20075;-73
2022/02/02 11:49:13;;;;;;;4.20;2.75;;;-7.10;99.90;;;;;;5031045;28;20017;-74
2022/02/02 11:52:02;;;;;;;4.18;3.00;;;-7.00;99.90;;;;;;5031545;28;20128;-73
2022/02/02 11:54:31;;;;;;;6.00;2.72;;;-7.10;99.90;;;;;;5031373;28;20117;-72
2022/02/02 11:57:05;;;;;;;3.70;2.45;;;-7.10;99.90;;;;;;5031092;28;20140;-72
2022/02/02 12:02:22;;;;;;;3.85;2.45;;;-7.10;99.90;;;;;;5031671;28;20041;-72
2022/02/02 12:07:58;;;;;;;4.03;2.70;;;-7.20;99.90;;;;;;5031760;28;20028;-71
2022/02/02 12:58:06;;;;;;;4.68;2.28;;;-7.50;99.90;;;;;;5033967;28;20163;-67
2022/02/02 13:03:00;;;;;;;7.75;2.78;;;-7.50;99.90;;;;;;5033935;28;20465;-80
2022/02/02 13:05:27;;;;;;;2.85;2.42;;;-7.50;99.90;;;;;;5033554;28;20040;-73
2022/02/02 13:07:55;;;;;;;4.75;2.70;;;-7.50;99.90;;;;;;5033920;28;20025;-71
2022/02/02 13:10:23;;;;;;;4.20;2.33;;;-7.50;99.90;;;;;;5033278;28;20026;-71
2022/02/02 13:15:40;;;;;;;4.60;2.53;;;-7.40;99.90;;;;;;5033955;28;20021;-70
2022/02/02 13:18:14;;;;;;;4.97;3.10;;;-2.80;99.90;;;;;;5033844;28;20380;-70
2022/02/02 13:25:59;;;;;;;3.20;2.30;;;-5.80;99.90;;;;;;5033777;28;20045;-70
2022/02/02 13:31:40;;;;;;;2.35;2.08;;;-6.60;99.90;;;;;;5022149;28;20052;-70
2022/02/02 13:34:16;;;;;;;3.90;2.97;;;-6.70;99.90;;;;;;5033450;28;20022;-70
2022/02/02 13:37:05;;;;;;;2.85;2.28;;;-6.80;99.90;;;;;;5033313;28;20026;-70
2022/02/02 13:56:11;;;;;;;4.50;2.72;;;-5.10;99.90;;;;;;5032915;28;20025;-71
2022/02/02 14:07:13;;;;;;;5.20;2.50;;;-6.90;99.90;;;;;;5033285;28;20068;-72
2022/02/02 14:09:18;;;;;;;4.88;2.55;;;-7.10;99.90;;;;;;5025574;28;20033;-70
2022/02/02 14:33:43;;;;;;;3.85;2.58;;;-7.70;99.90;;;;;;4971351;28;20038;-70
2022/02/02 14:36:11;;;;;;;3.45;2.40;;;-7.70;99.90;;;;;;5020758;28;20119;-70
2022/02/02 14:38:46;;;;;;;4.10;2.58;;;-7.60;99.90;;;;;;5032118;28;20057;-70
2022/02/02 14:41:33;;;;;;;2.10;1.90;;;-7.70;99.90;;;;;;5031389;28;20052;-70
2022/02/02 14:49:18;;;;;;;4.15;2.92;;;-7.90;99.90;;;;;;5032553;28;20071;-70
2022/02/02 14:52:11;;;;;;;4.55;2.63;;;-7.80;99.90;;;;;;5032019;28;20021;-71
2022/02/02 15:29:36;;;;;;;3.03;2.53;;;-6.80;99.90;;;;;;5024139;28;20021;-73
2022/02/02 15:32:03;;;;;;;2.80;2.10;;;-7.20;99.90;;;;;;5022281;28;20080;-73
2022/02/02 15:34:43;;;;;;;4.18;2.22;;;-7.60;99.90;;;;;;5020648;28;20022;-75
2022/02/02 15:40:03;;;;;;;2.75;2.10;;;-7.90;99.90;;;;;;5021054;28;20665;-74
2022/02/02 15:59:11;;;;;;;3.08;2.22;;;-8.30;99.90;;;;;;5034328;28;20510;-74
2022/02/02 16:04:25;;;;;;;3.15;2.53;;;-8.20;99.90;;;;;;5035178;28;20032;-74
2022/02/02 16:06:52;;;;;;;4.00;2.80;;;-8.30;99.90;;;;;;5035201;28;20026;-74
2022/02/02 16:11:46;;;;;;;4.90;2.60;;;-8.20;99.90;;;;;;5035473;28;20060;-74
2022/02/02 16:14:22;;;;;;;5.25;2.67;;;-8.30;99.90;;;;;;5035070;28;20025;-73
2022/02/02 16:17:15;;;;;;;4.57;2.65;;;-8.30;99.90;;;;;;5035365;28;20033;-72
2022/02/02 16:24:44;;;;;;;3.95;2.70;;;-8.30;99.90;;;;;;5035005;28;20457;-72
2022/02/02 16:36:24;;;;;;;5.55;2.10;;;-8.50;99.90;;;;;;5028015;28;20433;-72
2022/02/02 16:39:05;;;;;;;3.38;2.58;;;-8.50;99.90;;;;;;5033259;28;20060;-72
2022/02/02 16:44:16;;;;;;;3.75;2.33;;;-8.50;99.90;;;;;;5034863;28;20407;-73
2022/02/02 16:46:41;;;;;;;4.78;2.88;;;-8.40;99.90;;;;;;5034701;28;20105;-72
2022/02/02 16:49:08;;;;;;;5.07;2.85;;;-8.40;99.90;;;;;;5034826;28;20025;-72
2022/02/02 16:51:34;;;;;;;3.78;2.90;;;-8.30;99.90;;;;;;5034434;28;20029;-72
2022/02/02 16:54:03;;;;;;;7.00;3.10;;;-8.20;99.90;;;;;;5034517;28;20017;-76
2022/02/02 17:37:38;;;;;;;4.38;2.53;;;-8.30;99.90;;;;;;5053606;28;20029;-75
2022/02/02 18:19:22;;;;;;;8.98;3.13;;;-8.50;99.90;;;;;;5033147;28;20033;-73
2022/02/02 18:21:47;;;;;;;7.05;2.83;;;-8.50;99.90;;;;;;5032805;28;20447;-73
2022/02/02 18:24:20;;;;;;;5.95;3.10;;;-8.50;99.90;;;;;;5032990;28;20461;-73
2022/02/02 18:29:25;;;;;;;8.82;3.50;;;-8.50;99.90;;;;;;5032982;28;20104;-73
2022/02/02 18:45:21;;;;;;;5.78;3.13;;;-8.50;99.90;;;;;;5032534;28;20044;-73
2022/02/02 19:03:02;;;;;;;8.02;3.58;;;-8.40;99.90;;;;;;5032128;28;20079;-73
2022/02/02 20:08:44;;;;;;;3.97;3.38;;;-8.20;99.90;;;;;;5035278;28;20168;-72
2022/02/02 20:11:17;;;;;;;5.25;2.97;;;-8.30;99.90;;;;;;5035086;28;20508;-72
2022/02/02 20:13:43;;;;;;;3.75;2.47;;;-8.30;99.90;;;;;;5035063;28;20022;-72
2022/02/02 20:16:09;;;;;;;5.28;3.33;;;-8.30;99.90;;;;;;5035356;28;20021;-72
2022/02/02 20:18:39;;;;;;;5.72;3.35;;;-8.30;99.90;;;;;;5034916;28;20389;-73
2022/02/02 20:21:08;;;;;;;5.80;3.38;;;-8.30;99.90;;;;;;5035339;28;20096;-73
2022/02/02 20:23:39;;;;;;;4.55;3.40;;;-8.20;99.90;;;;;;5034850;28;20477;-73
2022/02/02 20:26:07;;;;;;;6.63;3.30;;;-8.20;99.90;;;;;;5034992;28;20033;-73
2022/02/02 20:28:33;;;;;;;7.53;3.17;;;-8.30;99.90;;;;;;5035128;28;20036;-73
2022/02/02 20:30:58;;;;;;;5.07;3.08;;;-8.30;99.90;;;;;;5035135;28;20029;-73
2022/02/02 20:33:24;;;;;;;8.57;3.65;;;-8.40;99.90;;;;;;5034781;28;20040;-73
2022/02/02 20:35:50;;;;;;;5.55;3.38;;;-8.20;99.90;;;;;;5034939;28;20105;-73
2022/02/02 20:38:16;;;;;;;7.35;4.68;;;-7.80;99.90;;;;;;5033246;28;20519;-72
2022/02/02 20:40:41;;;;;;;7.15;3.80;;;-7.70;99.90;;;;;;5033187;28;20049;-74
2022/02/02 20:43:11;;;;;;;5.95;3.08;;;-7.50;99.90;;;;;;5034860;28;20053;-71
2022/02/02 21:10:12;;;;;;;7.32;3.90;;;-8.10;99.90;;;;;;5034452;28;20026;-73
2022/02/02 21:15:26;;;;;;;9.98;4.97;;;-8.00;99.90;;;;;;5033836;28;20045;-74
2022/02/02 21:17:54;;;;;;;10.32;4.55;;;-8.00;99.90;;;;;;5033806;28;20021;-73
2022/02/02 21:23:04;;;;;;;6.07;3.22;;;-8.10;99.90;;;;;;5034004;28;20468;-74
2022/02/02 21:27:59;;;;;;;7.78;4.30;;;-8.10;99.90;;;;;;5030339;28;20079;-73
2022/02/02 21:30:25;;;;;;;7.63;3.92;;;-8.10;99.90;;;;;;5033913;28;20080;-73
2022/02/02 21:32:51;;;;;;;7.30;3.53;;;-8.10;99.90;;;;;;5031890;28;20029;-73
2022/02/02 21:35:18;;;;;;;4.82;3.17;;;-8.10;99.90;;;;;;5029647;28;20029;-73
2022/02/02 21:37:46;;;;;;;5.47;3.00;;;-8.10;99.90;;;;;;5029988;28;20046;-73
2022/02/02 21:40:23;;;;;;;5.93;3.00;;;-8.10;99.90;;;;;;5033697;28;20034;-73
2022/02/02 21:42:50;;;;;;;4.47;2.80;;;-8.00;99.90;;;;;;5033441;28;20013;-73
2022/02/02 21:45:18;;;;;;;5.43;2.92;;;-8.00;99.90;;;;;;5033457;28;20117;-73
2022/02/02 21:47:44;;;;;;;5.45;3.13;;;-8.00;99.90;;;;;;5033500;28;20033;-73
2022/02/02 21:50:14;;;;;;;4.53;2.83;;;-8.00;99.90;;;;;;5032864;28;20477;-73
2022/02/02 21:52:40;;;;;;;3.15;2.22;;;-8.00;99.90;;;;;;5033506;28;20094;-73
2022/02/02 21:55:07;;;;;;;3.63;2.60;;;-7.90;99.90;;;;;;5033290;28;20469;-74
2022/02/02 21:57:33;;;;;;;4.20;2.65;;;-6.80;99.90;;;;;;5032943;28;20072;-73
2022/02/02 21:59:59;;;;;;;4.07;2.63;;;-6.60;99.90;;;;;;5030983;28;20461;-71
2022/02/02 22:02:26;;;;;;;4.25;2.75;;;-6.90;99.90;;;;;;5030838;28;20033;-71
2022/02/02 22:04:52;;;;;;;4.40;2.47;;;-7.20;99.90;;;;;;5026882;28;20496;-72
2022/02/02 22:07:18;;;;;;;3.85;2.63;;;-7.50;99.90;;;;;;5031541;28;20033;-72
2022/02/02 22:09:47;;;;;;;3.78;2.22;;;-7.70;99.90;;;;;;5033049;28;20388;-72
2022/02/02 22:12:12;;;;;;;7.38;2.42;;;-7.80;99.90;;;;;;5033309;28;20033;-72
2022/02/02 22:14:39;;;;;;;3.72;2.47;;;-7.90;99.90;;;;;;5032881;28;20497;-72
2022/02/02 22:17:05;;;;;;;3.97;2.47;;;-7.90;99.90;;;;;;5032327;28;20104;-70
2022/02/02 22:19:31;;;;;;;3.80;2.53;;;-7.90;99.90;;;;;;5032976;28;20104;-70
2022/02/02 22:21:57;;;;;;;4.43;2.53;;;-7.90;99.90;;;;;;5032647;28;20544;-75
2022/02/02 22:24:23;;;;;;;4.32;2.55;;;-7.90;99.90;;;;;;5032953;28;20109;-72
2022/02/02 22:26:49;;;;;;;3.35;2.38;;;-7.90;99.90;;;;;;5032124;28;20589;-72
2022/02/02 22:29:15;;;;;;;8.23;2.92;;;-7.90;99.90;;;;;;5032521;28;20021;-72
2022/02/02 22:31:41;;;;;;;4.13;2.70;;;-8.00;99.90;;;;;;5032005;28;20399;-72
2022/02/02 22:34:07;;;;;;;4.28;2.70;;;-7.90;99.90;;;;;;5032133;28;20024;-72
2022/02/02 22:36:33;;;;;;;4.43;2.45;;;-7.90;99.90;;;;;;5032025;28;20017;-71
2022/02/02 22:38:58;;;;;;;2.85;2.25;;;-8.00;99.90;;;;;;5032009;28;20114;-71
2022/02/02 22:41:24;;;;;;;4.53;2.45;;;-8.00;99.90;;;;;;5031527;28;20027;-72
2022/02/02 22:43:53;;;;;;;5.40;2.95;;;-8.00;99.90;;;;;;5032266;28;20084;-72
2022/02/02 22:46:24;;;;;;;4.88;2.65;;;-7.90;99.90;;;;;;5032207;28;20037;-71
2022/02/02 22:48:50;;;;;;;5.93;2.60;;;-7.90;99.90;;;;;;5030872;28;20385;-72
2022/02/02 22:51:16;;;;;;;5.80;2.47;;;-8.00;99.90;;;;;;5032578;28;20037;-72
2022/02/02 22:53:42;;;;;;;4.35;2.50;;;-8.00;99.90;;;;;;5032142;28;20432;-72
2022/02/02 22:56:07;;;;;;;4.30;2.92;;;-8.00;99.90;;;;;;5032163;28;20037;-72
2022/02/02 22:58:33;;;;;;;4.50;2.60;;;-7.90;99.90;;;;;;5032127;28;20076;-72
2022/02/02 23:00:59;;;;;;;4.85;2.58;;;-8.00;99.90;;;;;;5031614;28;20083;-72
2022/02/02 23:03:25;;;;;;;3.22;2.30;;;-8.00;99.90;;;;;;5032003;28;20068;-72
2022/02/02 23:05:58;;;;;;;4.68;2.47;;;-8.00;99.90;;;;;;5031965;28;20056;-72
2022/02/02 23:08:27;;;;;;;4.55;2.28;;;-8.00;99.90;;;;;;5032301;28;20018;-72
2022/02/02 23:10:53;;;;;;;5.68;2.38;;;-8.00;99.90;;;;;;5032161;28;20052;-72
2022/02/02 23:13:19;;;;;;;2.60;2.20;;;-8.00;99.90;;;;;;5032023;28;20018;-72
2022/02/02 23:16:08;;;;;;;6.18;2.42;;;-8.00;99.90;;;;;;5032160;28;20029;-70
2022/02/02 23:18:36;;;;;;;4.45;2.60;;;-8.10;99.90;;;;;;5032126;28;20179;-70
2022/02/02 23:21:07;;;;;;;3.42;2.38;;;-8.00;99.90;;;;;;5032014;28;20108;-72
2022/02/02 23:23:42;;;;;;;5.07;2.33;;;-8.00;99.90;;;;;;5032176;28;20021;-74
2022/02/02 23:26:08;;;;;;;3.25;2.83;;;-7.90;99.90;;;;;;5032261;28;20045;-71
2022/02/02 23:28:38;;;;;;;5.40;2.88;;;-7.90;99.90;;;;;;5031912;28;20033;-73
2022/02/02 23:31:07;;;;;;;2.38;2.17;;;-7.90;99.90;;;;;;5031883;28;20022;-73
2022/02/02 23:33:35;;;;;;;2.65;2.42;;;-7.90;99.90;;;;;;5031849;28;20025;-74
2022/02/02 23:36:02;;;;;;;3.47;2.35;;;-8.00;99.90;;;;;;5031679;28;20021;-74
2022/02/02 23:38:29;;;;;;;3.00;2.10;;;-8.10;99.90;;;;;;5031743;28;20104;-74
2022/02/02 23:43:40;;;;;;;5.07;2.63;;;-8.10;99.90;;;;;;5031840;28;20075;-74
2022/02/02 23:46:14;;;;;;;3.70;2.33;;;-8.10;99.90;;;;;;5031536;28;20444;-74
2022/02/02 23:48:51;;;;;;;2.80;2.42;;;-8.00;99.90;;;;;;5031787;28;20045;-74
2022/02/02 23:51:23;;;;;;;4.10;2.60;;;-8.10;99.90;;;;;;5031657;28;20026;-73
2022/02/02 23:53:49;;;;;;;4.90;2.70;;;-8.10;99.90;;;;;;5031463;28;20492;-74
2022/02/02 23:58:55;;;;;;;4.40;2.53;;;-8.00;99.90;;;;;;5031782;28;20087;-73
